Terminal Aerodrome Forecast
Issued by NWS

Home | Current Version | Previous Version | Text Only | Print | Product List | Glossary On
Versions: 1 2 3 4 5 6 7 8 9 10 11 12 13 14 15 16 17 18
000
FTUS44 KEWX 042334
TAFSSF
TAF
KSSF 042334Z 0500/0524 12013KT P6SM BKN050
     FM050500 12008KT P6SM BKN012
     FM050800 12008KT P6SM BKN008 OVC012
     FM051400 13010KT P6SM OVC012
     FM051700 13013KT P6SM BKN025
     FM052000 13014KT P6SM BKN040=

USA.gov is the U.S. government's official web portal to all federal, state and local government web resources and services.